Terminal Aerodrome Forecast
Issued by NWS

Home | Current Version | Previous Version | Text Only | Print | Product List | Glossary On
Versions: 1 2 3 4 5 6 7 8 9 10 11 12 13 14 15 16 17 18 19 20 21
000
FTUS44 KLZK 031324 AAA
TAFPBF
TAF AMD
KPBF 031324Z 0313/0412 00000KT 5SM BR SKC
     FM031500 17005KT P6SM SCT040
     FM040000 14003KT P6SM SKC=

USA.gov is the U.S. government's official web portal to all federal, state and local government web resources and services.